Time;durP1;ratioP1;P1;durP2;ratioP2;P2;SDS_P1;SDS_P2;PMS_P1;PMS_P2;Temp;Humidity;BMP_temperature;BMP_pressure;BME280_temperature;BME280_humidity;BME280_pressure;Samples;Min_cycle;Max_cycle;Signal;HPM_P1;HPM_P2
2022/01/18 00:00:18;;;;;;;;;;;;;;;3.60;49.51;100872.09;4403939;32;34060;-77
2022/01/18 00:02:46;;;;;;;;;;;;;;;3.45;50.04;100874.63;4398554;32;36454;-78
2022/01/18 00:05:15;;;;;;;;;;;;;;;3.21;49.69;100879.28;4387178;32;35512;-78
2022/01/18 00:07:43;;;;;;;;;;;;;;;3.32;49.77;100873.53;4376410;32;33688;-78
2022/01/18 00:10:12;;;;;;;;;;;;;;;3.18;50.37;100884.69;4387026;32;33593;-77
2022/01/18 00:23:21;;;;;;;;;;;;;;;3.08;50.28;100887.81;4402704;32;35261;-77
2022/01/18 00:25:52;;;;;;;;;;;;;;;2.88;50.95;100898.41;4415773;32;35500;-77
2022/01/18 00:28:21;;;;;;;;;;;;;;;3.01;50.83;100904.78;4386048;32;32660;-77
2022/01/18 00:36:25;;;;;;;;;;;;;;;3.12;49.95;100913.06;4401689;32;34730;-77
2022/01/18 00:38:53;;;;;;;;;;;;;;;3.11;50.39;100916.59;4402005;32;33093;-78
2022/01/18 00:41:22;;;;;;;;;;;;;;;3.06;50.01;100923.84;4399695;32;33817;-79
2022/01/18 00:43:49;;;;;;;;;;;;;;;3.00;50.54;100929.38;4399852;32;35245;-78
2022/01/18 00:46:17;;;;;;;;;;;;;;;3.15;50.25;100929.50;4388448;32;34453;-77
2022/01/18 00:48:46;;;;;;;;;;;;;;;2.82;51.56;100924.94;4413894;32;33455;-78
2022/01/18 00:51:14;;;;;;;;;;;;;;;2.76;51.52;100928.69;4401149;32;33699;-77
2022/01/18 00:53:43;;;;;;;;;;;;;;;3.04;50.74;100937.03;4400561;32;36204;-78
2022/01/18 00:58:39;;;;;;;;;;;;;;;2.74;52.00;100925.28;4399511;32;32632;-78
2022/01/18 01:01:08;;;;;;;;;;;;;;;2.73;52.56;100930.59;4376389;32;34661;-78
2022/01/18 01:03:36;;;;;;;;;;;;;;;2.88;52.76;100933.44;4385739;32;35437;-78
2022/01/18 01:06:04;;;;;;;;;;;;;;;2.49;52.99;100939.56;4400754;32;34222;-79
2022/01/18 01:08:34;;;;;;;;;;;;;;;2.51;53.08;100950.88;4374380;32;33329;-78
2022/01/18 01:11:05;;;;;;;;;;;;;;;2.67;53.18;100945.78;4414747;32;33861;-79
2022/01/18 01:13:34;;;;;;;;;;;;;;;2.53;53.65;100950.81;4412467;32;36184;-78
2022/01/18 01:33:00;;;;;;;;;;;;;;;3.04;52.40;100973.84;4412991;32;33844;-78
2022/01/18 01:43:27;;;;;;;;;;;;;;;2.68;53.88;100972.00;4414902;32;33554;-78
2022/01/18 01:45:57;;;;;;;;;;;;;;;2.67;53.99;100970.31;4401052;32;35789;-78
2022/01/18 01:48:26;;;;;;;;;;;;;;;2.44;54.58;100972.22;4399756;32;34704;-78
2022/01/18 01:51:05;;;;;;;;;;;;;;;2.58;54.06;100986.47;4401196;32;32594;-78
2022/01/18 01:53:34;;;;;;;;;;;;;;;2.27;54.81;100967.66;4385966;32;34244;-79
2022/01/18 01:56:01;;;;;;;;;;;;;;;2.33;54.82;100970.03;4399778;32;35361;-78
2022/01/18 01:58:29;;;;;;;;;;;;;;;2.39;54.63;100964.53;4399205;32;34006;-78
2022/01/18 02:00:58;;;;;;;;;;;;;;;2.49;54.40;100971.09;4400647;32;34426;-78
2022/01/18 02:03:27;;;;;;;;;;;;;;;2.47;54.50;100975.56;4399840;32;33654;-77
2022/01/18 02:05:55;;;;;;;;;;;;;;;2.62;53.81;100972.25;4386111;32;36342;-79
2022/01/18 02:08:22;;;;;;;;;;;;;;;2.67;53.37;100984.28;4400792;32;34781;-79
2022/01/18 02:10:50;;;;;;;;;;;;;;;2.68;53.32;100987.78;4397034;32;33378;-79
2022/01/18 02:13:18;;;;;;;;;;;;;;;2.67;53.92;100996.56;4400429;32;33594;-79
2022/01/18 02:16:13;;;;;;;;;;;;;;;2.71;53.53;101000.75;4411161;32;37948;-79
2022/01/18 02:24:10;;;;;;;;;;;;;;;2.33;54.40;101004.16;4400031;32;33060;-79
2022/01/18 02:26:38;;;;;;;;;;;;;;;2.62;54.37;101009.03;4401865;32;35149;-79
2022/01/18 02:29:06;;;;;;;;;;;;;;;2.68;53.90;101009.63;4401050;32;33755;-79
2022/01/18 02:31:35;;;;;;;;;;;;;;;2.75;54.05;100999.72;4401954;32;33236;-79
2022/01/18 02:34:03;;;;;;;;;;;;;;;2.20;55.15;101007.34;4415796;32;33898;-79
2022/01/18 02:36:31;;;;;;;;;;;;;;;2.34;55.47;101005.03;4413173;32;35694;-79
2022/01/18 02:38:59;;;;;;;;;;;;;;;2.78;54.52;101004.84;4416147;32;35515;-79
2022/01/18 02:41:31;;;;;;;;;;;;;;;2.49;54.98;101009.63;4400043;32;33035;-79
2022/01/18 02:44:02;;;;;;;;;;;;;;;2.84;54.12;101008.06;4376381;32;34580;-79
2022/01/18 02:46:30;;;;;;;;;;;;;;;2.78;53.71;101008.31;4414607;32;34616;-80
2022/01/18 02:48:59;;;;;;;;;;;;;;;2.87;53.62;101007.91;4415206;32;34766;-78
2022/01/18 02:51:27;;;;;;;;;;;;;;;2.85;53.74;101009.75;4402511;32;33436;-79
2022/01/18 02:54:02;;;;;;;;;;;;;;;2.88;53.52;101008.78;4401895;32;34073;-79
2022/01/18 02:56:33;;;;;;;;;;;;;;;2.85;53.62;101015.00;4402428;32;34848;-79
2022/01/18 02:59:09;;;;;;;;;;;;;;;2.92;53.63;101011.19;4401859;32;34362;-79
2022/01/18 03:04:24;;;;;;;;;;;;;;;2.62;53.73;101027.44;4401667;32;34284;-79
2022/01/18 03:06:52;;;;;;;;;;;;;;;2.38;54.79;101036.34;4389881;32;34703;-78
2022/01/18 03:09:20;;;;;;;;;;;;;;;2.43;54.40;101033.53;4387323;32;33775;-79
2022/01/18 03:11:48;;;;;;;;;;;;;;;2.70;53.94;101038.47;4400554;32;31032;-78
2022/01/18 03:14:17;;;;;;;;;;;;;;;2.61;54.09;101046.72;4415000;32;34375;-80
2022/01/18 03:16:45;;;;;;;;;;;;;;;2.49;54.60;101046.38;4387933;32;36378;-79
2022/01/18 03:19:13;;;;;;;;;;;;;;;2.71;53.69;101055.94;4401806;32;34664;-79
2022/01/18 03:21:41;;;;;;;;;;;;;;;2.77;53.75;101072.28;4389256;32;33260;-79
2022/01/18 03:24:32;;;;;;;;;;;;;;;2.83;53.51;101072.03;4399588;32;31772;-80
2022/01/18 03:29:46;;;;;;;;;;;;;;;2.86;53.48;101078.94;4415708;32;34371;-79
2022/01/18 03:32:14;;;;;;;;;;;;;;;2.86;53.46;101090.28;4401713;32;33706;-78
2022/01/18 03:34:42;;;;;;;;;;;;;;;2.67;53.73;101104.28;4402001;32;33885;-79
2022/01/18 03:37:09;;;;;;;;;;;;;;;2.52;54.47;101104.91;4373986;32;36199;-79
2022/01/18 03:39:38;;;;;;;;;;;;;;;2.98;53.47;101109.94;4415192;32;35326;-79
2022/01/18 03:42:49;;;;;;;;;;;;;;;3.00;53.40;101110.72;4413968;32;33429;-80
2022/01/18 03:45:01;;;;;;;;;;;;;;;3.05;52.97;101114.03;4397281;32;33357;-79
2022/01/18 03:47:30;;;;;;;;;;;;;;;3.12;52.85;101116.34;4400896;32;35090;-79
2022/01/18 03:49:59;;;;;;;;;;;;;;;3.06;53.08;101121.00;4389402;32;34895;-79
2022/01/18 03:52:27;;;;;;;;;;;;;;;3.10;52.80;101122.56;4401881;32;33312;-79
2022/01/18 03:54:54;;;;;;;;;;;;;;;3.18;52.43;101116.06;4415271;32;34183;-79
2022/01/18 03:57:23;;;;;;;;;;;;;;;3.25;52.13;101117.53;4402234;32;35297;-79
2022/01/18 03:59:51;;;;;;;;;;;;;;;3.22;52.38;101119.44;4388412;32;34885;-79
2022/01/18 04:02:18;;;;;;;;;;;;;;;3.22;52.23;101122.91;4401768;32;33112;-79
2022/01/18 04:04:47;;;;;;;;;;;;;;;3.23;51.99;101129.88;4376220;32;32642;-79
2022/01/18 04:07:14;;;;;;;;;;;;;;;3.29;52.27;101126.09;4399012;32;35783;-79
2022/01/18 04:09:42;;;;;;;;;;;;;;;2.87;53.44;101141.94;4401781;32;34312;-80
2022/01/18 04:12:10;;;;;;;;;;;;;;;3.11;52.90;101140.03;4401893;32;33333;-79
2022/01/18 04:14:37;;;;;;;;;;;;;;;3.07;52.89;101143.75;4399014;32;34918;-80
2022/01/18 04:27:43;;;;;;;;;;;;;;;2.86;53.04;101152.53;4390827;32;35465;-80
2022/01/18 04:30:13;;;;;;;;;;;;;;;2.82;53.20;101154.44;4415589;32;34726;-80
2022/01/18 04:32:41;;;;;;;;;;;;;;;2.65;53.63;101153.41;4413086;32;33598;-79
2022/01/18 04:35:09;;;;;;;;;;;;;;;2.83;53.39;101150.00;4372815;32;901853;-79
2022/01/18 04:37:37;;;;;;;;;;;;;;;2.87;52.60;101159.50;4399342;32;35177;-79
2022/01/18 04:40:12;;;;;;;;;;;;;;;2.89;52.50;101160.28;4401509;32;34749;-79
2022/01/18 04:50:55;;;;;;;;;;;;;;;2.67;53.26;101183.09;4403743;32;34259;-79
2022/01/18 04:53:23;;;;;;;;;;;;;;;2.89;52.87;101184.81;4415117;32;33292;-79
2022/01/18 04:55:54;;;;;;;;;;;;;;;2.68;53.59;101196.16;4397554;32;33940;-79
2022/01/18 04:58:23;;;;;;;;;;;;;;;2.59;53.89;101198.31;4400941;32;34777;-79
2022/01/18 05:00:54;;;;;;;;;;;;;;;2.57;54.07;101196.66;4400469;32;34873;-79
2022/01/18 05:03:22;;;;;;;;;;;;;;;2.58;54.10;101196.59;4396765;32;33463;-79
2022/01/18 05:05:53;;;;;;;;;;;;;;;2.38;54.62;101187.78;4414028;32;34253;-79
2022/01/18 05:08:21;;;;;;;;;;;;;;;2.39;54.43;101189.50;4386245;32;35641;-79
2022/01/18 05:10:55;;;;;;;;;;;;;;;2.67;53.90;101196.25;4399047;32;34055;-79
2022/01/18 05:23:40;;;;;;;;;;;;;;;2.57;54.35;101207.16;4413548;32;33879;-79
2022/01/18 05:26:08;;;;;;;;;;;;;;;2.42;55.23;101198.09;4400581;32;33777;-78
2022/01/18 05:28:36;;;;;;;;;;;;;;;2.49;54.79;101201.34;4386892;32;35891;-78
2022/01/18 05:31:04;;;;;;;;;;;;;;;2.36;55.34;101194.88;4387690;32;34638;-79
2022/01/18 05:33:32;;;;;;;;;;;;;;;2.72;54.31;101211.81;4388826;32;34112;-77
2022/01/18 05:36:00;;;;;;;;;;;;;;;2.53;54.76;101218.72;4399936;32;34990;-77
2022/01/18 05:38:29;;;;;;;;;;;;;;;2.53;54.90;101230.06;4399994;32;34448;-77
2022/01/18 05:40:57;;;;;;;;;;;;;;;2.75;54.25;101230.94;4388605;32;34655;-77
2022/01/18 05:43:24;;;;;;;;;;;;;;;2.52;54.82;101232.75;4414180;32;33770;-76
2022/01/18 05:45:52;;;;;;;;;;;;;;;2.52;54.95;101238.84;4439017;26;34976;-87
2022/01/18 05:48:20;;;;;;;;;;;;;;;2.41;55.19;101233.16;4374399;32;34263;-88
2022/01/18 05:50:47;;;;;;;;;;;;;;;2.54;55.02;101234.41;4399904;32;35251;-88
2022/01/18 05:53:15;;;;;;;;;;;;;;;2.33;55.90;101242.25;4413901;32;33385;-90
2022/01/18 05:55:44;;;;;;;;;;;;;;;2.35;55.65;101251.78;4386843;32;34590;-88
2022/01/18 05:58:12;;;;;;;;;;;;;;;2.61;55.07;101245.53;4399658;32;35111;-88
2022/01/18 06:00:41;;;;;;;;;;;;;;;2.50;55.47;101242.44;4376594;32;35719;-88
2022/01/18 06:03:15;;;;;;;;;;;;;;;2.33;56.13;101239.63;4402038;32;33481;-89
2022/01/18 06:08:30;;;;;;;;;;;;;;;2.50;55.72;101247.69;4416195;32;35326;-88
2022/01/18 06:10:58;;;;;;;;;;;;;;;2.48;55.42;101253.03;4401628;32;33464;-88
2022/01/18 06:13:28;;;;;;;;;;;;;;;2.07;56.81;101258.97;4389326;32;32066;-89
2022/01/18 06:15:58;;;;;;;;;;;;;;;2.11;56.83;101260.56;4414364;32;34243;-87
2022/01/18 06:18:27;;;;;;;;;;;;;;;2.23;56.83;101256.63;4401425;32;35550;-87
2022/01/18 06:20:54;;;;;;;;;;;;;;;2.14;57.25;101254.34;4416144;32;34773;-87
2022/01/18 06:23:25;;;;;;;;;;;;;;;1.95;58.03;101264.66;4376453;32;32486;-88
2022/01/18 06:25:55;;;;;;;;;;;;;;;2.00;57.85;101259.25;4377221;32;33098;-89
2022/01/18 06:28:23;;;;;;;;;;;;;;;1.88;58.48;101257.06;4388816;32;35810;-88
2022/01/18 06:30:51;;;;;;;;;;;;;;;2.14;57.61;101259.59;4400696;32;33957;-89
2022/01/18 06:33:20;;;;;;;;;;;;;;;2.09;57.35;101254.53;4401996;32;33948;-87
2022/01/18 06:35:47;;;;;;;;;;;;;;;1.90;58.06;101255.25;4387452;32;34463;-85
2022/01/18 06:38:15;;;;;;;;;;;;;;;1.90;58.65;101250.84;4395196;32;35975;-87
2022/01/18 06:40:45;;;;;;;;;;;;;;;1.59;59.56;101249.38;4387398;32;33904;-88
2022/01/18 06:43:12;;;;;;;;;;;;;;;1.56;59.99;101247.72;4401936;32;33476;-87
2022/01/18 06:45:41;;;;;;;;;;;;;;;1.69;59.41;101254.22;4398276;32;34530;-88
2022/01/18 06:48:10;;;;;;;;;;;;;;;1.71;59.48;101257.66;4378871;32;34105;-90
2022/01/18 06:50:47;;;;;;;;;;;;;;;1.93;59.09;101279.62;4408005;32;34447;-86
2022/01/18 06:53:17;;;;;;;;;;;;;;;2.04;58.70;101273.97;4392253;32;34767;-88
2022/01/18 06:55:51;;;;;;;;;;;;;;;2.34;57.65;101278.94;4378044;32;34122;-86
2022/01/18 06:58:19;;;;;;;;;;;;;;;2.56;57.11;101277.25;4404370;32;34968;-88
2022/01/18 07:00:50;;;;;;;;;;;;;;;2.39;57.73;101273.53;4388555;32;33917;-87
2022/01/18 07:03:19;;;;;;;;;;;;;;;2.45;57.70;101275.94;4401753;32;33547;-89
2022/01/18 07:05:48;;;;;;;;;;;;;;;2.08;59.08;101284.28;4378043;32;35246;-88
2022/01/18 07:08:18;;;;;;;;;;;;;;;2.31;58.31;101284.31;4383052;32;33886;-88
2022/01/18 07:10:46;;;;;;;;;;;;;;;2.30;58.52;101282.62;4401229;32;34409;-86
2022/01/18 07:13:40;;;;;;;;;;;;;;;2.29;58.46;101280.91;4401029;32;33388;-88
2022/01/18 07:16:09;;;;;;;;;;;;;;;2.34;58.54;101275.47;4390734;32;34586;-90
2022/01/18 07:18:38;;;;;;;;;;;;;;;2.37;58.69;101275.34;4396011;32;34478;-87
2022/01/18 07:21:09;;;;;;;;;;;;;;;2.33;58.72;101272.00;4375749;32;35240;-87
2022/01/18 07:23:37;;;;;;;;;;;;;;;2.11;59.51;101275.47;4392467;32;34598;-88
2022/01/18 07:26:10;;;;;;;;;;;;;;;2.35;58.89;101266.69;4392277;32;36644;-87
2022/01/18 07:28:38;;;;;;;;;;;;;;;2.50;58.63;101276.59;4377625;32;33698;-87
2022/01/18 07:31:05;;;;;;;;;;;;;;;2.09;60.08;101274.66;4392576;32;34726;-88
2022/01/18 07:33:39;;;;;;;;;;;;;;;2.37;59.14;101275.34;4378074;32;32363;-85
2022/01/18 07:36:06;;;;;;;;;;;;;;;2.45;58.87;101263.63;4381142;32;32703;-88
2022/01/18 07:38:35;;;;;;;;;;;;;;;2.44;59.01;101272.44;4391547;32;35718;-86
2022/01/18 07:41:02;;;;;;;;;;;;;;;2.39;59.28;101271.78;4408759;32;34626;-86
2022/01/18 07:43:30;;;;;;;;;;;;;;;2.54;58.80;101270.34;4380320;32;33637;-87
2022/01/18 07:45:58;;;;;;;;;;;;;;;2.70;58.56;101269.66;4390788;32;34215;-89
2022/01/18 07:48:25;;;;;;;;;;;;;;;2.52;59.17;101277.41;4380814;32;34672;-88
2022/01/18 07:50:54;;;;;;;;;;;;;;;2.75;58.75;101276.47;4380180;32;32949;-88
2022/01/18 07:53:22;;;;;;;;;;;;;;;2.75;58.68;101300.09;4392980;32;33820;-88
2022/01/18 07:55:49;;;;;;;;;;;;;;;2.97;58.11;101289.62;4391279;32;34403;-86
2022/01/18 07:58:17;;;;;;;;;;;;;;;2.75;58.56;101300.09;4378518;32;35447;-87
2022/01/18 08:00:47;;;;;;;;;;;;;;;2.81;58.74;101306.91;4390031;32;33886;-88
2022/01/18 08:03:16;;;;;;;;;;;;;;;3.15;57.86;101326.53;4392708;32;33929;-87
2022/01/18 08:05:45;;;;;;;;;;;;;;;3.24;57.48;101327.97;4390590;32;33348;-87
2022/01/18 08:08:13;;;;;;;;;;;;;;;3.28;57.40;101319.88;4379211;32;36125;-88
2022/01/18 08:10:41;;;;;;;;;;;;;;;3.13;57.38;101325.75;4391033;32;34975;-89
2022/01/18 08:13:11;;;;;;;;;;;;;;;3.35;56.93;101315.22;4382396;32;33797;-88
2022/01/18 08:15:41;;;;;;;;;;;;;;;3.49;56.31;101331.31;4380922;32;33769;-86
2022/01/18 08:18:15;;;;;;;;;;;;;;;3.43;56.77;101340.28;4390483;32;36300;-88
2022/01/18 08:20:42;;;;;;;;;;;;;;;3.69;56.29;101342.72;4355450;32;32969;-88
2022/01/18 08:23:11;;;;;;;;;;;;;;;3.45;56.97;101350.75;4392613;32;33039;-88
2022/01/18 08:25:40;;;;;;;;;;;;;;;3.51;56.47;101355.78;4379690;32;32657;-89
2022/01/18 08:28:07;;;;;;;;;;;;;;;3.76;56.06;101361.72;4391601;32;34115;-88
2022/01/18 08:30:35;;;;;;;;;;;;;;;3.72;56.12;101378.56;4394838;32;34445;-88
2022/01/18 08:33:04;;;;;;;;;;;;;;;3.27;57.16;101383.06;4381447;32;34082;-88
2022/01/18 08:35:33;;;;;;;;;;;;;;;3.68;56.56;101396.25;4379396;32;33028;-89
2022/01/18 08:38:01;;;;;;;;;;;;;;;3.86;55.82;101387.62;4391595;32;36827;-89
2022/01/18 08:40:33;;;;;;;;;;;;;;;4.28;54.79;101384.94;4377723;32;33159;-88
2022/01/18 08:43:02;;;;;;;;;;;;;;;4.24;54.61;101386.00;4392271;32;33670;-88
2022/01/18 08:45:31;;;;;;;;;;;;;;;4.11;55.37;101387.44;4392516;32;34771;-89
2022/01/18 08:47:59;;;;;;;;;;;;;;;4.22;54.44;101393.97;4399981;32;36426;-86
2022/01/18 08:50:31;;;;;;;;;;;;;;;4.47;54.10;101399.00;4387855;32;34967;-88
2022/01/18 08:52:58;;;;;;;;;;;;;;;4.66;53.62;101410.44;4399970;32;33141;-88
2022/01/18 08:55:26;;;;;;;;;;;;;;;4.10;54.54;101407.66;4414409;32;34331;-90
2022/01/18 08:57:54;;;;;;;;;;;;;;;4.09;55.00;101408.59;4400488;32;35425;-85
2022/01/18 09:00:22;;;;;;;;;;;;;;;4.58;53.41;101402.91;4400171;32;34738;-91
2022/01/18 09:02:49;;;;;;;;;;;;;;;4.77;53.35;101410.81;4387357;32;33974;-87
2022/01/18 09:05:22;;;;;;;;;;;;;;;4.81;53.01;101412.41;4413266;32;33756;-88
2022/01/18 09:07:51;;;;;;;;;;;;;;;4.76;52.83;101420.53;4400256;32;34434;-87
2022/01/18 09:10:25;;;;;;;;;;;;;;;4.56;52.92;101428.47;4387691;32;34591;-89
2022/01/18 09:12:53;;;;;;;;;;;;;;;4.86;52.41;101415.69;4387469;32;34952;-87
2022/01/18 09:15:21;;;;;;;;;;;;;;;4.95;52.73;101420.53;4388051;32;33119;-89
2022/01/18 09:17:48;;;;;;;;;;;;;;;5.04;52.69;101428.91;4387426;32;36017;-87
2022/01/18 09:20:15;;;;;;;;;;;;;;;5.39;50.68;101417.56;4387179;32;33085;-89
2022/01/18 09:22:44;;;;;;;;;;;;;;;4.98;51.61;101430.97;4387033;32;31807;-86
2022/01/18 09:25:19;;;;;;;;;;;;;;;4.88;52.13;101442.81;4400428;32;34884;-89
2022/01/18 09:27:47;;;;;;;;;;;;;;;5.08;51.81;101433.09;4400098;32;36089;-87
2022/01/18 09:30:15;;;;;;;;;;;;;;;4.96;51.39;101449.50;4387448;32;33562;-88
2022/01/18 09:32:45;;;;;;;;;;;;;;;4.68;52.02;101453.41;4401570;32;33997;-88
2022/01/18 09:35:14;;;;;;;;;;;;;;;5.25;50.95;101456.94;4401204;32;33403;-89
2022/01/18 09:37:41;;;;;;;;;;;;;;;5.03;51.87;101455.34;4399620;32;35922;-88
2022/01/18 09:40:09;;;;;;;;;;;;;;;5.49;50.68;101458.44;4400577;32;34581;-87
2022/01/18 09:42:40;;;;;;;;;;;;;;;5.20;50.91;101450.16;4386869;32;32096;-89
2022/01/18 09:45:08;;;;;;;;;;;;;;;5.64;50.24;101442.72;4399753;32;33995;-89
2022/01/18 09:47:36;;;;;;;;;;;;;;;5.62;50.21;101444.59;4399135;32;34018;-88
2022/01/18 09:50:05;;;;;;;;;;;;;;;5.42;50.22;101445.56;4399942;32;33935;-88
2022/01/18 09:52:33;;;;;;;;;;;;;;;5.48;50.48;101459.34;4390955;32;33685;-88
2022/01/18 09:55:01;;;;;;;;;;;;;;;5.49;50.23;101448.72;4387000;32;32844;-88
2022/01/18 09:57:30;;;;;;;;;;;;;;;5.49;49.87;101445.25;4387062;32;35084;-86
2022/01/18 10:00:00;;;;;;;;;;;;;;;5.35;50.89;101439.72;4399408;32;34501;-90
2022/01/18 10:02:38;;;;;;;;;;;;;;;5.36;50.68;101443.25;4401118;32;32707;-87
2022/01/18 10:05:19;;;;;;;;;;;;;;;5.36;49.88;101438.81;4413654;32;34333;-88
2022/01/18 10:08:01;;;;;;;;;;;;;;;5.60;49.59;101433.22;4386488;32;35919;-89
2022/01/18 10:10:35;;;;;;;;;;;;;;;5.25;49.81;101438.47;4399229;32;34905;-89
2022/01/18 10:13:03;;;;;;;;;;;;;;;5.33;49.86;101431.03;4413329;32;33110;-87
2022/01/18 10:15:34;;;;;;;;;;;;;;;5.48;49.48;101425.03;4399778;32;33689;-87
2022/01/18 10:18:02;;;;;;;;;;;;;;;5.41;49.77;101426.25;4399615;32;36843;-90
2022/01/18 10:20:30;;;;;;;;;;;;;;;5.32;50.13;101437.25;4399459;32;34887;-89
2022/01/18 10:23:02;;;;;;;;;;;;;;;5.12;51.20;101445.25;4399783;32;33149;-90
2022/01/18 10:25:33;;;;;;;;;;;;;;;5.24;50.79;101441.16;4386982;32;34169;-89
2022/01/18 10:28:01;;;;;;;;;;;;;;;5.58;49.82;101429.81;4399139;32;34918;-86
2022/01/18 10:30:39;;;;;;;;;;;;;;;5.42;50.25;101435.03;4398236;32;34232;-89
2022/01/18 10:33:13;;;;;;;;;;;;;;;5.31;49.64;101432.91;4412889;32;32864;-90
2022/01/18 10:36:00;;;;;;;;;;;;;;;5.68;49.10;101419.66;4413038;32;34111;-90
2022/01/18 10:38:28;;;;;;;;;;;;;;;5.24;49.92;101434.13;4398544;32;34047;-89
2022/01/18 10:40:55;;;;;;;;;;;;;;;5.37;50.39;101424.69;4399311;32;35211;-90
2022/01/18 10:43:23;;;;;;;;;;;;;;;5.78;49.00;101423.56;4399920;32;33265;-89
2022/01/18 10:45:51;;;;;;;;;;;;;;;5.85;49.18;101423.22;4386496;32;32358;-87
2022/01/18 10:48:21;;;;;;;;;;;;;;;5.73;48.47;101422.91;4402140;32;35150;-85
2022/01/18 10:50:48;;;;;;;;;;;;;;;5.89;48.68;101432.69;4388822;32;33465;-88
2022/01/18 10:53:20;;;;;;;;;;;;;;;5.89;48.68;101430.03;4401555;32;33168;-90
2022/01/18 10:55:49;;;;;;;;;;;;;;;6.07;48.05;101430.94;4415781;32;34198;-87
2022/01/18 10:58:18;;;;;;;;;;;;;;;5.88;48.28;101438.06;4382411;32;34376;-86
2022/01/18 11:00:45;;;;;;;;;;;;;;;5.99;46.90;101422.53;4402511;32;33786;-90
2022/01/18 11:03:15;;;;;;;;;;;;;;;5.90;46.94;101438.84;4402170;32;33348;-87
2022/01/18 11:05:46;;;;;;;;;;;;;;;6.11;47.07;101425.44;4375844;32;33667;-89
2022/01/18 11:08:18;;;;;;;;;;;;;;;6.47;46.55;101427.97;4398151;32;35275;-87
2022/01/18 11:10:47;;;;;;;;;;;;;;;6.28;46.74;101424.56;4388432;32;34844;-88
2022/01/18 11:13:36;;;;;;;;;;;;;;;6.26;47.12;101416.69;4402902;32;33779;-86
2022/01/18 11:16:13;;;;;;;;;;;;;;;6.07;46.93;101425.66;4388945;32;32635;-86
2022/01/18 11:18:45;;;;;;;;;;;;;;;5.77;47.76;101435.91;4388635;32;35138;-91
2022/01/18 11:21:18;;;;;;;;;;;;;;;6.02;46.83;101431.16;4400939;32;34147;-90
2022/01/18 11:23:45;;;;;;;;;;;;;;;5.82;46.95;101452.44;4402284;32;31848;-91
2022/01/18 11:26:16;;;;;;;;;;;;;;;5.88;47.58;101444.19;4400155;32;33869;-90
2022/01/18 11:28:45;;;;;;;;;;;;;;;6.20;47.02;101455.81;4401496;32;35475;-88
2022/01/18 11:31:13;;;;;;;;;;;;;;;6.19;46.39;101447.03;4401069;32;34446;-89
2022/01/18 11:33:45;;;;;;;;;;;;;;;6.16;46.42;101446.34;4400411;32;33154;-86
2022/01/18 11:36:13;;;;;;;;;;;;;;;6.35;46.42;101447.94;4388858;32;34789;-89
2022/01/18 11:38:46;;;;;;;;;;;;;;;6.31;46.71;101456.97;4401448;32;36156;-90
2022/01/18 11:41:21;;;;;;;;;;;;;;;6.27;46.26;101433.44;4401103;32;34719;-91
2022/01/18 11:43:51;;;;;;;;;;;;;;;6.43;45.59;101434.38;4400547;32;32297;-89
2022/01/18 11:46:24;;;;;;;;;;;;;;;6.49;46.54;101453.41;4401100;32;33350;-86
2022/01/18 11:48:59;;;;;;;;;;;;;;;6.51;45.39;101453.34;4388213;32;36975;-85
2022/01/18 11:51:37;;;;;;;;;;;;;;;6.75;45.03;101460.84;4400242;32;34297;-88
2022/01/18 11:54:57;;;;;;;;;;;;;;;6.65;45.49;101462.28;4400697;32;31930;-83
2022/01/18 11:57:27;;;;;;;;;;;;;;;5.92;46.48;101453.69;4413329;32;34952;-85
2022/01/18 12:00:18;;;;;;;;;;;;;;;6.73;45.41;101465.34;4387953;32;35343;-86
2022/01/18 12:02:48;;;;;;;;;;;;;;;6.68;44.88;101455.94;4408293;32;34161;-87
2022/01/18 12:05:21;;;;;;;;;;;;;;;6.31;45.08;101461.41;4400720;32;33593;-84
2022/01/18 12:07:53;;;;;;;;;;;;;;;6.22;46.04;101448.66;4400371;32;32465;-87
2022/01/18 12:10:34;;;;;;;;;;;;;;;6.43;45.04;101451.06;4388389;32;34525;-87
2022/01/18 12:13:11;;;;;;;;;;;;;;;6.35;46.12;101432.09;4400723;32;35524;-87
2022/01/18 12:15:46;;;;;;;;;;;;;;;6.68;44.47;101435.66;4375704;32;31733;-88
2022/01/18 12:18:16;;;;;;;;;;;;;;;6.19;45.41;101432.97;4400141;32;32845;-89
2022/01/18 12:20:45;;;;;;;;;;;;;;;6.60;45.14;101437.84;4399855;32;35040;-86
2022/01/18 12:23:12;;;;;;;;;;;;;;;7.00;44.56;101441.88;4400454;32;34122;-88
2022/01/18 12:28:35;;;;;;;;;;;;;;;6.68;45.60;101448.88;4413258;32;33668;-88
2022/01/18 12:31:23;;;;;;;;;;;;;;;6.94;44.25;101448.38;4413106;32;35366;-86
2022/01/18 12:33:51;;;;;;;;;;;;;;;6.59;44.64;101440.56;4403176;32;35436;-89
2022/01/18 12:36:27;;;;;;;;;;;;;;;6.63;44.71;101447.41;4400036;32;32732;-88
2022/01/18 12:38:58;;;;;;;;;;;;;;;6.40;45.46;101450.37;4400218;32;33774;-87
2022/01/18 12:41:41;;;;;;;;;;;;;;;6.47;45.40;101435.91;4374958;32;33999;-90
2022/01/18 12:44:21;;;;;;;;;;;;;;;6.62;45.10;101456.28;4375715;32;33983;-86
2022/01/18 12:46:52;;;;;;;;;;;;;;;6.54;45.69;101453.16;4399689;32;33350;-86
2022/01/18 12:49:20;;;;;;;;;;;;;;;6.66;45.06;101456.03;4405151;32;33768;-87
2022/01/18 12:52:12;;;;;;;;;;;;;;;6.44;45.25;101468.63;4372591;32;34939;-85
2022/01/18 12:54:42;;;;;;;;;;;;;;;6.74;45.78;101453.84;4380217;32;33501;-85
2022/01/18 12:57:36;;;;;;;;;;;;;;;6.96;44.42;101451.78;4402945;32;31921;-86
2022/01/18 13:00:08;;;;;;;;;;;;;;;7.02;44.65;101453.25;4394993;32;34270;-86
2022/01/18 13:02:39;;;;;;;;;;;;;;;7.09;44.77;101465.22;4379711;32;33945;-86
2022/01/18 13:05:11;;;;;;;;;;;;;;;7.10;44.24;101473.03;4380649;32;34800;-89
2022/01/18 13:07:49;;;;;;;;;;;;;;;7.08;44.34;101469.62;4378549;32;32571;-85
2022/01/18 13:10:17;;;;;;;;;;;;;;;7.35;44.17;101462.84;4406885;32;34081;-88
2022/01/18 13:12:48;;;;;;;;;;;;;;;7.09;43.65;101471.34;4378760;32;35288;-87
2022/01/18 13:15:34;;;;;;;;;;;;;;;7.25;43.96;101461.66;4391575;32;34420;-86
2022/01/18 13:23:56;;;;;;;;;;;;;;;7.62;43.68;101469.28;4390375;32;33506;-87
2022/01/18 13:26:27;;;;;;;;;;;;;;;7.68;42.67;101465.44;4381057;32;33849;-87
2022/01/18 13:28:55;;;;;;;;;;;;;;;7.34;43.42;101477.03;4389523;32;32501;-87
2022/01/18 13:31:25;;;;;;;;;;;;;;;7.62;42.93;101474.56;4376524;32;34149;-87
2022/01/18 13:33:55;;;;;;;;;;;;;;;8.49;41.32;101475.69;4392180;32;33817;-88
2022/01/18 13:36:24;;;;;;;;;;;;;;;8.01;41.97;101490.87;4389271;32;33919;-88
2022/01/18 13:38:52;;;;;;;;;;;;;;;7.99;42.26;101476.00;4393478;32;32546;-88
2022/01/18 13:41:20;;;;;;;;;;;;;;;8.39;42.22;101481.59;4383011;32;34188;-88
2022/01/18 13:43:48;;;;;;;;;;;;;;;8.48;42.00;101483.72;4385770;32;34403;-88
2022/01/18 13:46:24;;;;;;;;;;;;;;;9.19;40.46;101469.59;4380651;32;33600;-85
2022/01/18 13:49:06;;;;;;;;;;;;;;;9.87;38.74;101482.88;4399446;32;32500;-86
2022/01/18 13:51:33;;;;;;;;;;;;;;;9.96;38.43;101474.31;4386248;32;34532;-86
2022/01/18 13:54:06;;;;;;;;;;;;;;;11.03;36.70;101467.03;4386702;32;34219;-88
2022/01/18 13:56:45;;;;;;;;;;;;;;;11.56;35.36;101467.59;4386944;32;35012;-90
2022/01/18 13:59:14;;;;;;;;;;;;;;;11.76;35.05;101464.37;4397219;32;33117;-85
2022/01/18 14:01:42;;;;;;;;;;;;;;;10.92;36.13;101481.06;4396269;32;34733;-87
2022/01/18 14:04:14;;;;;;;;;;;;;;;11.36;35.64;101484.97;4413638;32;35517;-87
2022/01/18 14:06:43;;;;;;;;;;;;;;;11.84;35.08;101486.00;4399622;32;33954;-88
2022/01/18 14:09:13;;;;;;;;;;;;;;;10.85;36.40;101498.41;4399682;32;32368;-86
2022/01/18 14:11:50;;;;;;;;;;;;;;;10.81;35.94;101493.41;4383702;32;34301;-88
2022/01/18 14:14:24;;;;;;;;;;;;;;;10.95;36.18;101478.19;4387135;32;35695;-84
2022/01/18 14:16:58;;;;;;;;;;;;;;;10.59;37.12;101488.69;4399089;32;34002;-87
2022/01/18 14:19:27;;;;;;;;;;;;;;;10.65;36.48;101493.59;4374464;32;33310;-89
2022/01/18 14:21:59;;;;;;;;;;;;;;;10.46;37.53;101494.97;4388597;32;34725;-88
2022/01/18 14:24:33;;;;;;;;;;;;;;;10.89;36.52;101491.06;4401360;32;35269;-90
2022/01/18 14:27:07;;;;;;;;;;;;;;;10.63;37.21;101486.66;4399265;32;35592;-89
2022/01/18 14:29:53;;;;;;;;;;;;;;;;;;;;;
2022/01/18 14:35:54;;;;;;;;;;;;;;;9.76;38.85;101481.88;4422229;32;35047;-88
2022/01/18 14:39:19;;;;;;;;;;;;;;;9.46;39.39;101468.72;4421125;32;35551;-87
2022/01/18 14:52:38;;;;;;;;;;;;;;;8.04;42.96;101481.91;4360219;32;34910;-90
2022/01/18 14:56:28;;;;;;;;;;;;;;;7.80;43.72;101493.88;4347917;32;32251;-88